Time;durP1;ratioP1;P1;durP2;ratioP2;P2;SDS_P1;SDS_P2;PMS_P1;PMS_P2;Temp;Humidity;BMP_temperature;BMP_pressure;BME280_temperature;BME280_humidity;BME280_pressure;Samples;Min_cycle;Max_cycle;Signal;HPM_P1;HPM_P2
2022/05/01 00:00:56;;;;;;;8.98;5.53;;;19.60;46.00;;;;;;6306735;22;19999;-87
2022/05/01 00:03:30;;;;;;;7.88;5.43;;;19.50;46.20;;;;;;6307265;22;20437;-86
2022/05/01 00:06:04;;;;;;;7.03;4.82;;;19.50;46.40;;;;;;6306137;22;20007;-86
2022/05/01 00:08:31;;;;;;;8.38;5.60;;;19.50;46.40;;;;;;6307083;22;19999;-86
2022/05/01 00:10:57;;;;;;;8.40;5.50;;;19.60;46.10;;;;;;6306647;22;20034;-86
2022/05/01 00:13:24;;;;;;;8.13;5.43;;;19.60;46.30;;;;;;6306838;22;20418;-85
2022/05/01 00:15:50;;;;;;;7.88;5.80;;;19.60;46.00;;;;;;6306803;22;20033;-85
2022/05/01 00:18:18;;;;;;;7.15;5.80;;;19.70;46.20;;;;;;6307269;22;20063;-86
2022/05/01 00:20:43;;;;;;;8.38;5.50;;;19.70;46.30;;;;;;6306970;22;19995;-88
2022/05/01 00:23:10;;;;;;;7.43;5.28;;;19.70;46.20;;;;;;6307801;22;20009;-85
2022/05/01 00:25:37;;;;;;;10.18;5.88;;;19.70;46.90;;;;;;6306536;22;20437;-85
2022/05/01 00:28:04;;;;;;;6.38;5.03;;;19.70;46.60;;;;;;6307779;22;20010;-87
2022/05/01 00:30:29;;;;;;;7.85;5.05;;;19.50;46.70;;;;;;6308500;22;20094;-88
2022/05/01 00:38:24;;;;;;;6.70;5.18;;;19.50;46.90;;;;;;6308670;22;20057;-86
2022/05/01 00:40:54;;;;;;;7.07;4.55;;;19.60;47.10;;;;;;6308065;22;20401;-88
2022/05/01 00:43:20;;;;;;;6.88;5.32;;;19.60;47.20;;;;;;6308516;22;20006;-87
2022/05/01 00:45:45;;;;;;;9.85;5.10;;;19.60;47.20;;;;;;6281489;22;19999;-88
2022/05/01 00:48:11;;;;;;;7.10;4.80;;;19.50;46.60;;;;;;6281932;22;20093;-87
2022/05/01 00:50:37;;;;;;;8.65;4.82;;;19.50;46.90;;;;;;6311491;22;20417;-87
2022/05/01 00:53:05;;;;;;;9.50;5.60;;;19.50;47.10;;;;;;6320033;22;20021;-87
2022/05/01 00:55:32;;;;;;;5.63;4.50;;;19.40;47.20;;;;;;6322068;22;20025;-88
2022/05/01 00:57:59;;;;;;;6.38;4.40;;;19.40;47.20;;;;;;6294581;22;20018;-87
2022/05/01 01:00:25;;;;;;;7.95;5.00;;;19.40;47.60;;;;;;6323422;22;20000;-89
2022/05/01 01:02:51;;;;;;;5.65;4.40;;;19.40;47.70;;;;;;6326938;22;20009;-89
2022/05/01 01:05:17;;;;;;;7.82;5.25;;;19.40;47.30;;;;;;6328583;22;20003;-91
2022/05/01 01:07:42;;;;;;;8.85;5.43;;;19.40;47.90;;;;;;6299122;22;20015;-87
2022/05/01 01:10:09;;;;;;;6.93;5.13;;;19.40;47.30;;;;;;6323361;22;20011;-88
2022/05/01 01:15:24;;;;;;;9.18;5.90;;;19.20;47.90;;;;;;6320104;22;20026;-86
2022/05/01 01:17:54;;;;;;;10.35;6.10;;;19.20;48.70;;;;;;6309469;22;20003;-86
2022/05/01 01:20:31;;;;;;;10.65;7.60;;;19.10;49.00;;;;;;6306983;22;20012;-86
2022/05/01 01:22:59;;;;;;;8.55;6.72;;;18.80;50.00;;;;;;6306592;22;20007;-85
2022/05/01 01:25:29;;;;;;;7.82;6.28;;;18.60;51.20;;;;;;6306876;22;20058;-84
2022/05/01 01:27:59;;;;;;;10.80;7.55;;;18.60;51.60;;;;;;6307066;22;20477;-84
2022/05/01 01:33:10;;;;;;;10.40;7.35;;;18.30;53.10;;;;;;6306855;22;20098;-87
2022/05/01 01:35:38;;;;;;;5.70;5.10;;;18.10;53.70;;;;;;6307782;22;20010;-88
2022/05/01 01:38:04;;;;;;;7.15;5.85;;;18.20;52.30;;;;;;6279851;22;20048;-89
2022/05/01 01:40:49;;;;;;;7.57;6.30;;;18.40;52.30;;;;;;6306931;22;19999;-89
2022/05/01 01:43:19;;;;;;;7.78;5.90;;;18.60;53.20;;;;;;6309982;22;20068;-95
2022/05/01 01:45:46;;;;;;;;;;;18.60;52.20;;;;;;6309731;22;20006;-88
2022/05/01 01:48:14;;;;;;;11.38;8.00;;;18.50;54.00;;;;;;6308632;22;19899;-95
2022/05/01 01:50:41;;;;;;;7.13;5.93;;;18.40;54.90;;;;;;6309325;22;19995;-94
2022/05/01 01:53:09;;;;;;;5.97;5.38;;;18.30;54.90;;;;;;6309521;22;19995;-93
2022/05/01 01:55:37;;;;;;;6.72;5.47;;;18.30;54.40;;;;;;6310251;22;20010;-94
2022/05/01 01:58:03;;;;;;;7.72;5.90;;;18.30;53.80;;;;;;6310180;22;20006;-95
2022/05/01 02:00:29;;;;;;;7.82;6.40;;;18.50;53.60;;;;;;6309325;22;20418;-93
2022/05/01 02:03:00;;;;;;;7.55;5.85;;;18.40;55.50;;;;;;6310102;22;20003;-94
2022/05/01 02:05:27;;;;;;;6.65;5.22;;;18.40;54.00;;;;;;6310131;22;20003;-95
2022/05/01 02:07:54;;;;;;;7.18;5.38;;;18.40;54.60;;;;;;6281637;22;20015;-94
2022/05/01 02:10:20;;;;;;;5.90;5.25;;;18.40;54.20;;;;;;6308351;22;20005;-93
2022/05/01 02:12:46;;;;;;;6.90;5.65;;;18.50;54.00;;;;;;6281391;22;20007;-91
2022/05/01 02:15:11;;;;;;;6.25;5.07;;;18.60;54.00;;;;;;6309134;22;20440;-94
2022/05/01 02:17:41;;;;;;;10.13;6.28;;;18.70;54.80;;;;;;6281823;22;20437;-88
2022/05/01 02:20:08;;;;;;;6.35;5.25;;;18.70;54.10;;;;;;6307842;22;20022;-89
2022/05/01 02:22:34;;;;;;;6.05;4.78;;;18.60;54.90;;;;;;6307761;22;20026;-88
2022/05/01 02:25:01;;;;;;;6.88;5.75;;;18.70;54.20;;;;;;6281632;22;20330;-93
2022/05/01 02:27:27;;;;;;;5.97;5.10;;;18.70;54.20;;;;;;6309801;22;19999;-95
2022/05/01 02:29:53;;;;;;;6.32;5.13;;;18.70;54.10;;;;;;6282859;22;20007;-95
2022/05/01 02:32:18;;;;;;;7.30;5.28;;;18.70;54.00;;;;;;6308424;22;20003;-93
2022/05/01 02:34:45;;;;;;;6.20;4.55;;;18.70;54.60;;;;;;6309660;22;20007;-94
2022/05/01 02:37:10;;;;;;;6.22;4.35;;;18.70;54.10;;;;;;6308823;22;20010;-92
2022/05/01 02:39:36;;;;;;;6.57;4.93;;;18.70;54.10;;;;;;6310478;22;19999;-93
2022/05/01 02:42:02;;;;;;;5.57;4.57;;;18.60;54.60;;;;;;6310486;22;20023;-94
2022/05/01 02:44:28;;;;;;;5.55;4.35;;;18.60;54.90;;;;;;6310167;22;19999;-93
2022/05/01 02:46:54;;;;;;;5.57;4.43;;;18.50;54.70;;;;;;6309306;22;20026;-90
2022/05/01 02:49:21;;;;;;;5.50;4.25;;;18.60;54.60;;;;;;6309788;22;19999;-92
2022/05/01 02:51:47;;;;;;;5.07;4.57;;;18.30;55.70;;;;;;6281947;22;20071;-91
2022/05/01 02:54:13;;;;;;;5.38;4.30;;;18.10;55.70;;;;;;6282512;22;20435;-92
2022/05/01 02:56:38;;;;;;;6.00;5.15;;;18.00;56.30;;;;;;6309221;22;19995;-93
2022/05/01 02:59:09;;;;;;;6.13;4.10;;;17.90;56.70;;;;;;6308308;22;19995;-92
2022/05/01 03:01:38;;;;;;;6.03;5.40;;;17.80;56.30;;;;;;6309235;22;19999;-94
2022/05/01 03:04:04;;;;;;;4.28;3.85;;;17.90;56.70;;;;;;6282885;22;20007;-94
2022/05/01 03:06:30;;;;;;;4.18;3.47;;;18.00;55.80;;;;;;6309886;22;20003;-94
2022/05/01 03:08:56;;;;;;;4.65;4.03;;;18.10;55.40;;;;;;6308969;22;20005;-93
2022/05/01 03:11:21;;;;;;;5.22;3.78;;;18.20;55.20;;;;;;6308780;22;20026;-95
2022/05/01 03:13:47;;;;;;;7.63;4.15;;;18.30;55.20;;;;;;6310813;22;20421;-95
2022/05/01 03:16:13;;;;;;;7.47;4.13;;;18.30;55.00;;;;;;6314530;22;19995;-95
2022/05/01 03:24:09;;;;;;;4.32;3.55;;;18.30;54.50;;;;;;6314248;22;20018;-94
2022/05/01 03:26:35;;;;;;;3.70;3.40;;;18.30;54.50;;;;;;6308863;22;20360;-87
2022/05/01 03:29:01;;;;;;;4.40;3.25;;;18.30;54.40;;;;;;6307091;22;20441;-87
2022/05/01 03:31:27;;;;;;;3.30;3.00;;;18.40;54.20;;;;;;6307249;22;20471;-90
2022/05/01 03:33:54;;;;;;;5.00;3.60;;;18.40;54.00;;;;;;6280697;22;20081;-87
2022/05/01 03:36:21;;;;;;;4.38;3.67;;;18.40;53.60;;;;;;6307509;22;20003;-93
2022/05/01 03:38:47;;;;;;;3.58;3.22;;;18.40;53.40;;;;;;6281534;22;20007;-93
2022/05/01 03:41:17;;;;;;;4.40;3.30;;;18.40;53.40;;;;;;6309043;22;20002;-92
2022/05/01 03:43:43;;;;;;;4.53;3.83;;;18.30;53.20;;;;;;6309055;22;20003;-89
2022/05/01 03:46:10;;;;;;;6.07;4.40;;;18.30;53.20;;;;;;6309934;22;19999;-92
2022/05/01 03:48:35;;;;;;;3.95;3.50;;;18.10;53.00;;;;;;6309373;22;20010;-92
2022/05/01 03:51:02;;;;;;;3.97;3.38;;;18.00;53.30;;;;;;6282444;22;20003;-89
2022/05/01 03:53:29;;;;;;;4.20;3.67;;;18.00;53.30;;;;;;6309360;22;20102;-91
2022/05/01 03:55:55;;;;;;;6.13;3.30;;;18.10;53.20;;;;;;6309511;22;20003;-86
2022/05/01 03:58:21;;;;;;;3.08;2.70;;;18.20;53.10;;;;;;6307963;22;20011;-88
2022/05/01 04:00:48;;;;;;;3.60;2.67;;;18.30;53.00;;;;;;6308915;22;19999;-87
2022/05/01 04:03:19;;;;;;;3.83;3.15;;;18.30;52.50;;;;;;6308450;22;20631;-86
2022/05/01 04:05:46;;;;;;;5.22;3.22;;;18.40;52.60;;;;;;6308823;22;20003;-88
2022/05/01 04:08:12;;;;;;;4.72;3.30;;;18.40;52.40;;;;;;6282027;22;20426;-91
2022/05/01 04:10:41;;;;;;;5.90;3.20;;;18.50;52.20;;;;;;6309939;22;20007;-92
2022/05/01 04:13:07;;;;;;;3.85;3.00;;;18.50;52.00;;;;;;6309607;22;20003;-93
2022/05/01 04:15:33;;;;;;;3.17;2.80;;;18.50;51.70;;;;;;6310520;22;20451;-95
2022/05/01 04:18:04;;;;;;;3.40;2.90;;;18.50;51.80;;;;;;6309380;22;20019;-86
2022/05/01 04:20:30;;;;;;;;;;;18.60;52.10;;;;;;6308879;22;19995;-86
2022/05/01 04:22:56;;;;;;;5.35;2.60;;;18.60;52.10;;;;;;6280713;22;19899;-87
2022/05/01 04:25:29;;;;;;;4.85;3.30;;;18.60;52.10;;;;;;6306923;22;20460;-86
2022/05/01 04:28:07;;;;;;;3.85;2.83;;;18.60;51.90;;;;;;6307260;22;20072;-86
2022/05/01 04:30:33;;;;;;;4.45;3.50;;;18.60;52.10;;;;;;6307946;22;20010;-87
2022/05/01 04:33:10;;;;;;;3.03;2.70;;;18.50;51.70;;;;;;6280721;22;20010;-86
2022/05/01 04:35:40;;;;;;;2.80;2.55;;;18.40;51.10;;;;;;6308742;22;20007;-88
2022/05/01 04:38:10;;;;;;;4.38;2.83;;;18.40;51.00;;;;;;6307673;22;19995;-86
2022/05/01 04:40:38;;;;;;;3.50;2.58;;;18.30;50.20;;;;;;6307906;22;19995;-85
2022/05/01 04:43:11;;;;;;;7.90;3.53;;;18.20;50.50;;;;;;6307904;22;19996;-85
2022/05/01 04:45:40;;;;;;;4.20;3.38;;;18.10;50.90;;;;;;6280995;22;20381;-86
2022/05/01 04:48:07;;;;;;;3.80;2.95;;;18.00;51.20;;;;;;6307079;22;20006;-87
2022/05/01 04:50:33;;;;;;;3.95;2.80;;;17.90;51.50;;;;;;6308287;22;20007;-86
2022/05/01 04:53:02;;;;;;;3.22;2.42;;;17.90;51.70;;;;;;6307946;22;20092;-86
2022/05/01 04:55:29;;;;;;;3.28;2.70;;;17.90;51.90;;;;;;6307267;22;20397;-84
2022/05/01 04:57:55;;;;;;;4.03;3.10;;;18.00;52.10;;;;;;6279085;22;20003;-86
2022/05/01 05:00:21;;;;;;;4.45;2.92;;;18.00;52.60;;;;;;6307175;22;20053;-86
2022/05/01 05:02:52;;;;;;;2.80;2.30;;;18.00;52.70;;;;;;6306437;22;20365;-86
2022/05/01 05:05:19;;;;;;;4.72;2.90;;;18.00;52.30;;;;;;6279843;22;20003;-87
2022/05/01 05:07:45;;;;;;;5.03;3.22;;;17.90;52.60;;;;;;6279796;22;20003;-87
2022/05/01 05:10:12;;;;;;;3.17;2.78;;;17.90;53.20;;;;;;6307700;22;20008;-89
2022/05/01 05:12:42;;;;;;;5.22;3.55;;;18.00;52.80;;;;;;6307468;22;20013;-89
2022/05/01 05:15:10;;;;;;;5.10;3.00;;;18.00;53.80;;;;;;6307659;22;20008;-88
2022/05/01 05:17:37;;;;;;;4.72;2.60;;;18.00;53.70;;;;;;6307296;22;19991;-86
2022/05/01 05:20:08;;;;;;;7.63;3.08;;;18.00;53.30;;;;;;6280210;22;20004;-87
2022/05/01 05:22:34;;;;;;;3.28;2.92;;;18.00;53.90;;;;;;6280113;22;20056;-88
2022/05/01 05:25:00;;;;;;;3.72;2.90;;;17.90;53.60;;;;;;6308166;22;19999;-88
2022/05/01 05:27:26;;;;;;;3.22;2.70;;;17.80;54.00;;;;;;6307091;22;20007;-86
2022/05/01 05:29:56;;;;;;;2.60;2.38;;;17.90;54.20;;;;;;6307495;22;20009;-87
2022/05/01 05:32:23;;;;;;;3.33;2.58;;;17.90;54.30;;;;;;6279329;22;20007;-86
2022/05/01 05:34:49;;;;;;;3.92;2.90;;;17.80;54.30;;;;;;6307354;22;20027;-87
2022/05/01 05:37:16;;;;;;;3.80;3.08;;;17.80;54.30;;;;;;6279469;22;20105;-89
2022/05/01 05:39:42;;;;;;;4.43;2.75;;;17.60;54.50;;;;;;6280665;22;20322;-87
2022/05/01 05:42:09;;;;;;;3.25;2.40;;;17.60;54.60;;;;;;6307934;22;19999;-90
2022/05/01 05:44:34;;;;;;;4.43;2.80;;;17.70;54.80;;;;;;6307239;22;20004;-88
2022/05/01 05:47:00;;;;;;;3.40;2.70;;;17.80;54.90;;;;;;6307116;22;20003;-90
2022/05/01 05:49:26;;;;;;;3.28;2.10;;;17.80;55.00;;;;;;6307507;22;20333;-90
2022/05/01 05:51:52;;;;;;;5.63;2.67;;;17.90;54.50;;;;;;6307364;22;20057;-86
2022/05/01 05:54:17;;;;;;;2.35;2.03;;;18.00;54.40;;;;;;6307482;22;20007;-89
2022/05/01 05:56:43;;;;;;;2.03;1.70;;;18.00;54.30;;;;;;6280384;22;19999;-88
2022/05/01 05:59:25;;;;;;;3.58;2.88;;;18.10;53.90;;;;;;6280987;22;20003;-92
2022/05/01 06:01:50;;;;;;;5.13;2.60;;;18.20;54.20;;;;;;6281315;22;19999;-93
2022/05/01 06:04:16;;;;;;;3.75;2.65;;;18.20;54.40;;;;;;6280794;22;20338;-92
2022/05/01 06:06:42;;;;;;;2.38;1.92;;;18.20;54.30;;;;;;6307469;22;20006;-95
2022/05/01 06:09:08;;;;;;;4.53;2.17;;;18.20;54.10;;;;;;6307646;22;20393;-95
2022/05/01 06:11:35;;;;;;;3.85;3.50;;;18.30;54.00;;;;;;6308132;22;20000;-93
2022/05/01 06:14:02;;;;;;;6.85;3.50;;;18.20;54.00;;;;;;6281751;22;20043;-94
2022/05/01 06:16:28;;;;;;;3.72;3.42;;;18.20;54.40;;;;;;6308372;22;20006;-91
2022/05/01 06:18:54;;;;;;;4.78;2.90;;;18.20;54.70;;;;;;6280539;22;19999;-89
2022/05/01 06:21:19;;;;;;;6.30;2.70;;;18.20;55.10;;;;;;6306277;22;19999;-90
2022/05/01 06:23:48;;;;;;;3.80;2.38;;;18.20;55.00;;;;;;6281315;22;20021;-91
2022/05/01 06:26:14;;;;;;;3.65;3.00;;;18.30;55.10;;;;;;6280502;22;20050;-89
2022/05/01 06:28:40;;;;;;;3.55;2.55;;;18.30;55.30;;;;;;6307628;22;20080;-92
2022/05/01 06:31:07;;;;;;;4.15;2.80;;;18.30;55.40;;;;;;6308032;22;20422;-91
2022/05/01 06:33:35;;;;;;;4.43;2.53;;;18.30;55.50;;;;;;6307608;22;20078;-90
2022/05/01 06:36:01;;;;;;;2.28;2.08;;;18.30;55.40;;;;;;6307876;22;20026;-88
2022/05/01 06:38:28;;;;;;;6.53;2.90;;;18.40;54.80;;;;;;6307749;22;20006;-91
2022/05/01 06:40:54;;;;;;;4.25;2.70;;;18.50;55.20;;;;;;6307665;22;19999;-90
2022/05/01 06:43:20;;;;;;;4.97;2.70;;;18.50;55.00;;;;;;6279337;22;20696;-90
2022/05/01 06:45:47;;;;;;;6.63;3.08;;;18.40;54.90;;;;;;6307189;22;20488;-85
2022/05/01 06:48:13;;;;;;;2.78;2.40;;;18.40;55.20;;;;;;6280102;22;20011;-91
2022/05/01 06:50:39;;;;;;;3.08;2.20;;;18.50;55.10;;;;;;6306040;22;19999;-83
2022/05/01 06:53:06;;;;;;;4.35;2.53;;;18.70;55.50;;;;;;6307166;22;20010;-84
2022/05/01 06:55:32;;;;;;;4.78;2.30;;;18.70;55.20;;;;;;6305750;22;20008;-88
2022/05/01 06:57:58;;;;;;;3.58;2.55;;;18.80;55.00;;;;;;6307718;22;20010;-84
2022/05/01 07:00:24;;;;;;;2.95;2.20;;;18.90;54.90;;;;;;6280124;22;20035;-89
2022/05/01 07:02:54;;;;;;;4.15;1.90;;;18.90;54.70;;;;;;6278272;22;20003;-89
2022/05/01 07:05:21;;;;;;;3.22;2.30;;;19.00;54.50;;;;;;6306980;22;20007;-88
2022/05/01 07:07:50;;;;;;;2.50;2.00;;;19.10;54.00;;;;;;6307021;22;20309;-89
2022/05/01 07:10:16;;;;;;;4.07;1.92;;;19.20;53.60;;;;;;6279732;22;20433;-89
2022/05/01 07:12:42;;;;;;;16.63;2.67;;;19.30;53.30;;;;;;6307525;22;20003;-90
2022/05/01 07:15:08;;;;;;;4.65;2.78;;;19.30;52.80;;;;;;6307889;22;20456;-90
2022/05/01 07:17:34;;;;;;;3.05;2.20;;;19.30;52.50;;;;;;6280253;22;20004;-90
2022/05/01 07:20:00;;;;;;;4.18;2.45;;;19.40;53.00;;;;;;6308443;22;20364;-90
2022/05/01 07:22:26;;;;;;;3.20;2.20;;;19.50;52.40;;;;;;6309144;22;19996;-91
2022/05/01 07:24:52;;;;;;;4.93;2.55;;;19.60;52.20;;;;;;6283001;22;20296;-92
2022/05/01 07:27:18;;;;;;;3.08;2.25;;;19.60;51.50;;;;;;6310250;22;20003;-91
2022/05/01 07:29:44;;;;;;;2.85;1.92;;;19.70;51.80;;;;;;6309446;22;19999;-88
2022/05/01 07:32:10;;;;;;;2.92;1.90;;;19.80;51.60;;;;;;6308993;22;20010;-87
2022/05/01 07:34:36;;;;;;;2.78;2.28;;;19.90;51.60;;;;;;6308945;22;20014;-91
2022/05/01 07:37:02;;;;;;;2.53;1.90;;;20.00;51.20;;;;;;6308981;22;20003;-90
2022/05/01 07:39:28;;;;;;;3.00;2.00;;;20.20;51.10;;;;;;6307343;22;20085;-91
2022/05/01 07:41:54;;;;;;;2.60;2.15;;;20.30;51.20;;;;;;6282088;22;19999;-91
2022/05/01 07:44:20;;;;;;;4.53;2.00;;;20.40;51.10;;;;;;6307718;22;20078;-90
2022/05/01 07:46:46;;;;;;;3.80;2.28;;;20.60;51.20;;;;;;6308847;22;20022;-91
2022/05/01 07:49:12;;;;;;;2.65;2.17;;;20.70;50.90;;;;;;6308973;22;19999;-90
2022/05/01 07:51:40;;;;;;;2.53;2.30;;;20.90;50.30;;;;;;6309212;22;20007;-91
2022/05/01 07:54:06;;;;;;;4.05;3.30;;;20.90;49.90;;;;;;6309080;22;20048;-92
2022/05/01 07:56:33;;;;;;;2.58;2.28;;;21.00;50.30;;;;;;6308385;22;20002;-89
2022/05/01 07:59:00;;;;;;;2.45;2.10;;;21.10;50.10;;;;;;6307156;22;20010;-88
2022/05/01 08:01:27;;;;;;;3.15;1.88;;;21.20;50.20;;;;;;6307621;22;19999;-88
2022/05/01 08:06:37;;;;;;;2.58;2.20;;;21.30;49.80;;;;;;6308470;22;20018;-90
2022/05/01 08:09:04;;;;;;;2.65;2.40;;;21.40;49.30;;;;;;6307178;22;20056;-90
2022/05/01 08:11:30;;;;;;;2.40;2.00;;;21.40;49.70;;;;;;6280922;22;20429;-89
2022/05/01 08:13:57;;;;;;;2.95;1.90;;;21.60;49.70;;;;;;6280014;22;20027;-82
2022/05/01 08:16:32;;;;;;;3.00;2.70;;;21.60;49.60;;;;;;6282990;22;20003;-80
2022/05/01 08:21:46;;;;;;;2.75;2.47;;;21.60;47.70;;;;;;6306976;22;20067;-90
2022/05/01 08:24:11;;;;;;;2.97;1.98;;;21.40;47.00;;;;;;6307447;22;20078;-89
2022/05/01 08:26:37;;;;;;;3.13;2.00;;;21.50;47.80;;;;;;6307580;22;20027;-90
2022/05/01 08:29:03;;;;;;;3.10;2.40;;;21.60;47.60;;;;;;6303802;22;20071;-85
2022/05/01 08:31:40;;;;;;;2.88;2.00;;;21.70;46.90;;;;;;6298152;22;20013;-85
2022/05/01 08:34:07;;;;;;;1.80;1.70;;;21.80;47.10;;;;;;6279368;22;20019;-84
2022/05/01 08:36:33;;;;;;;1.70;1.60;;;22.00;47.30;;;;;;6307600;22;19996;-88
2022/05/01 08:38:59;;;;;;;2.63;1.83;;;22.10;46.90;;;;;;6306533;22;20006;-88
2022/05/01 08:41:30;;;;;;;3.38;2.40;;;22.20;46.90;;;;;;6279758;22;20083;-88
2022/05/01 08:44:00;;;;;;;3.78;2.25;;;22.30;46.40;;;;;;6306384;22;20003;-88
2022/05/01 08:46:31;;;;;;;2.55;2.00;;;22.30;46.50;;;;;;6307479;22;20015;-84
2022/05/01 08:49:07;;;;;;;1.70;1.52;;;22.50;46.10;;;;;;6307209;22;20003;-84
2022/05/01 08:51:39;;;;;;;2.65;2.28;;;22.50;46.40;;;;;;6306856;22;20049;-85
2022/05/01 08:54:16;;;;;;;1.92;1.70;;;22.50;46.00;;;;;;6306901;22;20081;-89
2022/05/01 08:56:44;;;;;;;2.83;2.45;;;22.50;44.80;;;;;;6304540;22;20010;-85
2022/05/01 08:59:23;;;;;;;2.50;1.88;;;22.50;43.90;;;;;;6322689;22;20015;-85
2022/05/01 09:01:52;;;;;;;2.63;1.67;;;22.50;44.40;;;;;;6305581;22;20011;-88
2022/05/01 09:04:18;;;;;;;2.88;2.10;;;22.40;44.90;;;;;;6331817;22;20204;-88
2022/05/01 09:06:45;;;;;;;4.43;2.00;;;22.50;44.50;;;;;;6293537;22;20003;-87
2022/05/01 09:09:21;;;;;;;6.60;2.92;;;22.50;44.80;;;;;;6316320;22;20014;-89
2022/05/01 09:14:35;;;;;;;3.35;1.98;;;22.50;41.00;;;;;;6304644;22;20050;-81
2022/05/01 09:17:14;;;;;;;1.70;1.60;;;22.60;42.60;;;;;;6306588;22;19996;-83
2022/05/01 09:19:41;;;;;;;2.03;1.50;;;22.70;43.10;;;;;;6304851;22;20014;-81
2022/05/01 09:22:07;;;;;;;2.92;1.90;;;22.80;43.00;;;;;;6306740;22;20345;-83
2022/05/01 09:24:33;;;;;;;4.30;2.00;;;23.00;43.40;;;;;;6307107;22;20006;-83
2022/05/01 09:26:59;;;;;;;3.17;2.10;;;23.10;43.90;;;;;;6306954;22;19999;-85
2022/05/01 09:29:34;;;;;;;2.63;1.90;;;23.20;42.70;;;;;;6305982;22;20014;-84
2022/05/01 09:32:04;;;;;;;2.00;1.80;;;23.30;42.60;;;;;;6307297;22;20007;-84
2022/05/01 09:34:32;;;;;;;1.83;1.73;;;23.50;42.50;;;;;;6279345;22;20472;-87
2022/05/01 09:37:00;;;;;;;2.22;1.80;;;23.60;42.70;;;;;;6307366;22;19999;-86
2022/05/01 09:39:31;;;;;;;2.10;1.52;;;23.80;42.10;;;;;;6315370;22;20008;-86
2022/05/01 09:42:16;;;;;;;2.13;1.58;;;23.90;42.40;;;;;;6313787;22;19995;-88
2022/05/01 09:44:42;;;;;;;1.92;1.70;;;24.10;41.50;;;;;;6323116;22;20102;-82
2022/05/01 09:47:09;;;;;;;1.98;1.70;;;24.10;40.00;;;;;;6358911;22;20071;-74
2022/05/01 09:49:51;;;;;;;2.88;1.75;;;24.20;40.80;;;;;;6367982;22;20002;-73
2022/05/01 09:52:17;;;;;;;2.20;1.70;;;24.20;39.90;;;;;;6369231;22;20507;-73
2022/05/01 09:55:04;;;;;;;3.15;1.75;;;24.20;40.30;;;;;;6369825;22;20034;-73
2022/05/01 09:57:31;;;;;;;5.18;2.08;;;24.20;40.20;;;;;;6369271;22;20354;-72
2022/05/01 09:59:57;;;;;;;2.08;1.85;;;24.20;41.00;;;;;;6340970;22;20003;-72
2022/05/01 10:02:30;;;;;;;3.47;1.90;;;24.30;40.20;;;;;;6369450;22;20055;-73
2022/05/01 10:05:03;;;;;;;3.65;1.80;;;24.40;39.70;;;;;;6368681;22;20002;-73
2022/05/01 10:07:38;;;;;;;2.35;2.15;;;24.40;40.10;;;;;;6369622;22;19998;-73
2022/05/01 10:10:07;;;;;;;2.65;2.17;;;24.60;39.90;;;;;;6367915;22;20002;-73
2022/05/01 10:12:41;;;;;;;1.80;1.70;;;24.70;40.40;;;;;;6369176;22;19999;-73
2022/05/01 10:15:08;;;;;;;2.95;1.98;;;24.80;40.30;;;;;;6369194;22;20376;-73
2022/05/01 10:17:37;;;;;;;2.13;1.92;;;24.90;40.50;;;;;;6369754;22;20036;-73
2022/05/01 10:20:03;;;;;;;3.03;1.98;;;24.90;39.20;;;;;;6369756;22;19994;-73
2022/05/01 10:22:35;;;;;;;3.85;2.70;;;24.90;39.30;;;;;;6341746;22;20002;-73
2022/05/01 10:25:03;;;;;;;3.25;1.83;;;25.00;39.90;;;;;;6368029;22;20069;-73
2022/05/01 10:27:38;;;;;;;2.22;1.90;;;25.00;39.30;;;;;;6340841;22;20426;-73
2022/05/01 10:33:18;;;;;;;2.20;2.00;;;25.10;40.40;;;;;;6366472;22;20017;-73
2022/05/01 10:36:02;;;;;;;2.90;2.10;;;25.20;39.60;;;;;;6367407;22;20493;-74
2022/05/01 10:39:08;;;;;;;2.92;2.13;;;25.40;40.20;;;;;;6341012;22;19998;-74
2022/05/01 10:41:39;;;;;;;2.35;1.80;;;25.40;38.80;;;;;;6339449;22;20002;-74
2022/05/01 10:44:05;;;;;;;3.55;2.10;;;25.40;39.30;;;;;;6369041;22;19998;-73
2022/05/01 10:46:32;;;;;;;2.30;1.95;;;25.40;39.50;;;;;;6340360;22;20014;-73
2022/05/01 10:49:05;;;;;;;2.63;2.10;;;25.50;39.10;;;;;;6341011;22;20006;-73
2022/05/01 10:51:31;;;;;;;2.70;2.25;;;25.60;38.80;;;;;;6367697;22;20003;-74
2022/05/01 10:54:19;;;;;;;1.77;1.65;;;25.70;39.10;;;;;;6370189;22;20315;-73
2022/05/01 10:56:49;;;;;;;3.03;2.38;;;25.70;38.50;;;;;;6370585;22;20009;-74
2022/05/01 10:59:38;;;;;;;4.90;2.22;;;25.80;38.80;;;;;;6370450;22;20332;-74
2022/05/01 11:02:06;;;;;;;1.98;1.70;;;25.90;38.50;;;;;;6343012;22;20413;-73
2022/05/01 11:04:36;;;;;;;1.70;1.60;;;26.00;38.50;;;;;;6366982;22;20384;-74
2022/05/01 11:07:04;;;;;;;2.00;1.90;;;26.10;38.40;;;;;;6368011;22;20055;-74
2022/05/01 11:09:34;;;;;;;2.65;2.00;;;26.20;38.30;;;;;;6370019;22;20029;-78
2022/05/01 11:12:04;;;;;;;2.80;1.92;;;26.40;38.50;;;;;;6369238;22;20006;-78
2022/05/01 11:15:02;;;;;;;;;;;26.50;38.00;;;;;;6370477;22;20037;-78
2022/05/01 11:17:36;;;;;;;3.15;2.28;;;26.60;37.40;;;;;;6339503;22;19898;-78
2022/05/01 11:20:10;;;;;;;2.55;2.25;;;26.70;37.10;;;;;;6370001;22;20052;-79
2022/05/01 11:22:37;;;;;;;3.22;2.20;;;26.80;37.80;;;;;;6369862;22;20005;-79
2022/05/01 11:25:04;;;;;;;3.13;2.40;;;26.90;37.90;;;;;;6370535;22;19998;-78
2022/05/01 11:27:48;;;;;;;2.53;1.80;;;27.00;36.70;;;;;;6371141;22;20009;-78
2022/05/01 11:30:34;;;;;;;2.10;1.90;;;27.30;36.50;;;;;;6370678;22;20006;-78
2022/05/01 11:33:03;;;;;;;2.40;2.20;;;27.80;37.10;;;;;;6369884;22;20007;-79
2022/05/01 11:35:56;;;;;;;2.40;2.20;;;28.40;36.70;;;;;;6371083;22;20007;-78
2022/05/01 11:38:44;;;;;;;7.03;2.40;;;28.90;35.30;;;;;;6371469;22;20656;-78
2022/05/01 11:41:11;;;;;;;2.80;2.40;;;29.00;34.40;;;;;;6367275;22;20008;-78
2022/05/01 11:43:37;;;;;;;4.15;2.38;;;29.20;35.00;;;;;;6369666;22;20001;-79
2022/05/01 11:46:16;;;;;;;3.63;2.45;;;29.70;35.30;;;;;;6363613;22;20083;-76
2022/05/01 11:48:42;;;;;;;2.97;2.67;;;30.10;32.90;;;;;;6369295;22;20003;-77
2022/05/01 11:51:09;;;;;;;3.15;2.85;;;30.40;31.90;;;;;;6370613;22;20420;-77
2022/05/01 11:53:37;;;;;;;3.47;2.33;;;30.80;32.70;;;;;;6370583;22;20009;-77
2022/05/01 12:04:45;;;;;;;2.85;2.20;;;32.00;32.10;;;;;;6370187;22;20049;-74
2022/05/01 12:07:17;;;;;;;2.67;2.03;;;32.20;31.10;;;;;;6367411;22;19998;-74
2022/05/01 12:09:45;;;;;;;2.38;2.17;;;32.30;30.40;;;;;;6371410;22;20003;-74
2022/05/01 12:12:16;;;;;;;2.25;2.05;;;32.40;30.00;;;;;;6370724;22;20002;-74
2022/05/01 12:14:43;;;;;;;2.90;2.30;;;32.50;29.90;;;;;;6369964;22;20071;-74
2022/05/01 12:17:14;;;;;;;2.58;2.20;;;32.50;29.40;;;;;;6370292;22;20002;-75
2022/05/01 12:19:43;;;;;;;2.88;2.15;;;32.60;29.70;;;;;;6370551;22;20005;-75
2022/05/01 12:22:14;;;;;;;4.05;1.88;;;32.80;29.80;;;;;;6370729;22;20022;-75
2022/05/01 12:24:42;;;;;;;2.20;2.00;;;32.90;29.20;;;;;;6369330;22;20006;-75
2022/05/01 12:27:08;;;;;;;2.40;2.20;;;32.90;29.40;;;;;;6370986;22;20010;-75
2022/05/01 12:29:35;;;;;;;2.38;2.17;;;33.30;28.80;;;;;;6343468;22;20089;-75
2022/05/01 12:32:08;;;;;;;2.92;2.25;;;33.60;29.00;;;;;;6371216;22;20002;-78
2022/05/01 12:34:40;;;;;;;2.30;2.10;;;33.80;28.60;;;;;;6342153;22;20374;-77
2022/05/01 12:37:12;;;;;;;2.72;2.33;;;33.90;28.20;;;;;;6340293;22;20014;-77
2022/05/01 12:39:38;;;;;;;2.25;1.98;;;34.10;28.40;;;;;;6369031;22;20005;-77
2022/05/01 12:45:11;;;;;;;2.35;2.13;;;34.50;28.00;;;;;;6368283;22;20013;-77
2022/05/01 12:47:43;;;;;;;2.25;1.80;;;34.10;27.50;;;;;;6368540;22;20002;-77
2022/05/01 12:50:29;;;;;;;2.42;2.22;;;34.10;27.70;;;;;;6369113;22;20025;-77
2022/05/01 12:53:28;;;;;;;3.40;2.40;;;34.30;28.10;;;;;;6340799;22;20009;-77
2022/05/01 12:56:18;;;;;;;2.33;2.13;;;34.20;27.60;;;;;;6356518;22;20301;-77
2022/05/01 12:58:44;;;;;;;2.00;1.90;;;34.60;27.50;;;;;;6365493;22;20014;-77
2022/05/01 13:01:22;;;;;;;2.35;2.15;;;34.90;26.70;;;;;;6340427;22;20067;-77
2022/05/01 13:03:49;;;;;;;2.88;2.60;;;35.00;26.50;;;;;;6340283;22;20005;-78
2022/05/01 13:06:16;;;;;;;2.40;2.22;;;35.10;26.30;;;;;;6341136;22;20420;-77
2022/05/01 13:08:45;;;;;;;4.95;2.58;;;35.00;26.70;;;;;;6369664;22;19994;-75
2022/05/01 13:11:26;;;;;;;2.50;2.30;;;34.60;27.10;;;;;;6368526;22;20044;-74
2022/05/01 13:13:53;;;;;;;2.63;2.20;;;34.00;27.60;;;;;;6369106;22;20412;-74
2022/05/01 13:16:40;;;;;;;2.28;2.05;;;33.90;27.60;;;;;;6368173;22;20420;-74
2022/05/01 13:19:09;;;;;;;3.58;2.55;;;34.00;27.40;;;;;;6363753;22;20002;-74
2022/05/01 13:21:38;;;;;;;2.10;1.98;;;33.70;25.50;;;;;;6367149;22;20370;-74
2022/05/01 13:24:20;;;;;;;2.40;2.20;;;33.50;26.70;;;;;;6369112;22;20234;-77
2022/05/01 13:26:46;;;;;;;5.40;2.53;;;33.40;26.80;;;;;;6367652;22;20005;-77
2022/05/01 13:29:13;;;;;;;3.17;2.13;;;33.00;26.10;;;;;;6367644;22;20013;-77
2022/05/01 13:31:43;;;;;;;2.28;2.08;;;33.00;26.70;;;;;;6339406;22;20470;-77
2022/05/01 13:34:10;;;;;;;4.18;2.70;;;33.10;26.90;;;;;;6339973;22;20006;-77
2022/05/01 13:36:40;;;;;;;2.00;1.80;;;33.40;27.10;;;;;;6369185;22;20002;-78